Terminal Aerodrome Forecast
Issued by NWS

Home | Current Version | Previous Version | Text Only | Print | Product List | Glossary On
Versions: 1 2 3 4 5 6 7 8 9 10 11 12 13 14 15 16
000
FTUS41 KBTV 252338
TAFMPV
TAF
KMPV 252338Z 2600/2624 VRB03KT P6SM SCT050
     FM260200 00000KT P6SM SKC
      TEMPO 2604/2607 2SM BR SCT010
     FM260700 00000KT 2SM BR OVC008
      TEMPO 2607/2611 1/2SM FG VV001
     FM261300 VRB04KT P6SM FEW080 SCT160
     FM261800 19008KT P6SM FEW050 BKN100=

USA.gov is the U.S. government's official web portal to all federal, state and local government web resources and services.